Domov               UVHVVR             MKGP            O straneh              
ZDRAVSTVENO VARSTVO RASTLIN
  MREŽA AGROMET. POSTAJ
 ► PROGNOSTIČNA OBVESTILA
AGROMETEOROLOŠKI PODATKI -
ARSO
OBVLADOVANJE TVEGANJ ZARADI
NEUGODNIH VREMENSKIH RAZMER
  ► NARAVNE NESREČE
  ► SUŠA/MOČA
  ► NAMAKANJE
  ► ŽLED (gozdarstvo)
KARTOGRAFSKI PRIKAZI
SPLETNE POVEZAVE
PROJEKTI IN PUBLIKACIJE

AGROMETEOROLOŠKA MREŽA: VREMENSKE POSTAJE IN FENOLOŠKA OPAZOVANJA

Pregled podatkov za lokacijo Šlovrenc, meteorološka postaja 859088

Pregled senzorjev na lokaciji

ID Ime Zadnja
vrednost
Datum
zadnje
spremembe
Tip
senzorja
3973 Temperatura 2 m ( °C) 14,26 °C 24.10.2017 10:29 50YA
3974 Relativna vlaga 2 m (% RH) 69,82 % RH 24.10.2017 10:30 50YA
3975 Omočenost lista (U) 0 U 24.10.2017 10:29 A730WET
3976 Padavine 0.2 mm (mm) 0 mm 24.10.2017 10:30 Rain-O-Matic

Pregled podatkov zadnjih 24 ur

Zap.
št.
Datum in čas Šlovrenc
Omočenost
lista
Padavine
0.2
mm
Relativna
vlaga
2
m
Temperatura
2
m
0 24.10.2017 09:30 0 0 69,82 14,26
1 24.10.2017 09:00 0 0 75,13 12,2
2 24.10.2017 08:30 0 0 83 9,65
3 24.10.2017 08:00 0 0 91,43 6,6
4 24.10.2017 07:30 0 0 97,63 4,43
5 24.10.2017 07:00 0 0 98,56 2,93
6 24.10.2017 06:30 0 0 99,03 2,84
7 24.10.2017 06:00 0 0 98,38 2,91
8 24.10.2017 05:30 0 0 97,69 3,1
9 24.10.2017 05:00 0 0 96,84 3,72
10 24.10.2017 04:30 0 0 98,36 3,87
11 24.10.2017 04:00 0 0 99,94 3,32
12 24.10.2017 03:30 0 0 100 3,11
13 24.10.2017 03:00 0 0 100 2,73
14 24.10.2017 02:30 0 0 99,99 2,72
15 24.10.2017 02:00 0 0 99,98 2,83
16 24.10.2017 01:30 0 0 99,87 2,96
17 24.10.2017 01:00 0 0 99,55 3,2
18 24.10.2017 00:30 0 0 99,16 3,62
19 24.10.2017 00:00 0 0 98,5 3,77
20 23.10.2017 23:30 0 0 97,16 4,35
21 23.10.2017 23:00 0 0 98,75 4,61
22 23.10.2017 22:30 0 0 98,42 4,62
23 23.10.2017 22:00 0 0 98,78 5,28
24 23.10.2017 21:30 0 0 99,42 5,37
25 23.10.2017 21:00 0 0 99,63 5,84
26 23.10.2017 20:30 0 0 99,15 6,27
27 23.10.2017 20:00 0 0 98,81 7,14
28 23.10.2017 19:30 0 0 98,25 8,03
29 23.10.2017 19:00 0 0 97,52 8,72
30 23.10.2017 18:30 0 0 95,43 9,56
31 23.10.2017 18:00 0 0 92,21 10,66
32 23.10.2017 17:30 0 0 88,15 11,85
33 23.10.2017 17:00 0 0 78,75 13,93
34 23.10.2017 16:30 0 0 65,26 16,62
35 23.10.2017 16:00 0 0 56,91 18,1
36 23.10.2017 15:30 0 0 53,71 18,72
37 23.10.2017 15:00 0 0 51,92 19,03
38 23.10.2017 14:30 0 0 52,6 18,76
39 23.10.2017 14:00 0 0 60,09 17,18
40 23.10.2017 13:30 0 0 59,74 16,96
41 23.10.2017 13:00 0 0 62,01 17,34
42 23.10.2017 12:30 0 0 59,7 17,17
43 23.10.2017 12:00 0 0 58,96 16,9
44 23.10.2017 11:30 0 0 62,98 16,17
© 2011 Ministrstvo za kmetijstvo, gozdarstvo in prehrano. Vse pravice pridržane.